Аэропорт: Омск-Центральный. Омск

ICAO: UNOO

METAR:
2019/03/26 13:00
UNOO 261300Z 16006MPS 9999 SCT011 BKN033CB 02/00 Q1017 R07/290150 NOSIG RMK QFE754
METAR:
2019/03/26 12:21
TAF UNOO 261055Z 2612/2712 15009G15MPS 2100 -SHRA BKN006 BKN020CB 
     FM261600 25006MPS 3100 -SHSN BKN009 BKN020CB 
      TEMPO 2616/2621 28007G13MPS 1000 SHSNRA VV003 
      BECMG 2623/2701 6000 NSW